createdAt,value
2022-08-19T00:01:58.990Z,23.85
2022-08-19T00:04:29.982Z,23.80
2022-08-19T00:06:59.501Z,23.75
2022-08-19T00:09:28.659Z,23.70
2022-08-19T00:11:58.989Z,23.66
2022-08-19T00:14:31.798Z,23.59
2022-08-19T00:17:01.693Z,23.57
2022-08-19T00:19:30.678Z,23.57
2022-08-19T00:21:59.994Z,23.56
2022-08-19T00:24:29.234Z,23.57
2022-08-19T00:27:25.302Z,23.57
2022-08-19T00:29:52.670Z,23.57
2022-08-19T00:32:21.705Z,23.56
2022-08-19T00:34:51.132Z,23.55
2022-08-19T00:37:20.029Z,23.54
2022-08-19T00:39:49.264Z,23.54
2022-08-19T00:42:20.192Z,23.53
2022-08-19T00:44:49.583Z,23.50
2022-08-19T00:47:18.815Z,23.45
2022-08-19T00:49:51.738Z,23.40
2022-08-19T00:52:24.340Z,23.32
2022-08-19T00:54:54.022Z,23.28
2022-08-19T00:57:27.793Z,23.27
2022-08-19T01:00:01.860Z,23.26
2022-08-19T01:02:33.200Z,23.26
2022-08-19T01:05:06.459Z,23.29
2022-08-19T01:07:37.647Z,23.31
2022-08-19T01:10:10.934Z,23.34
2022-08-19T01:12:40.168Z,23.37
2022-08-19T01:15:12.154Z,23.37
2022-08-19T01:17:41.785Z,23.37
2022-08-19T01:20:16.162Z,23.35
2022-08-19T01:22:47.816Z,23.34
2022-08-19T01:25:20.089Z,23.32
2022-08-19T01:27:53.401Z,23.26
2022-08-19T01:30:25.358Z,23.24
2022-08-19T01:32:55.032Z,23.19
2022-08-19T01:35:25.839Z,23.16
2022-08-19T01:37:58.176Z,23.12
2022-08-19T01:40:29.972Z,23.12
2022-08-19T01:42:58.365Z,23.12
2022-08-19T01:45:29.922Z,23.06
2022-08-19T01:48:02.344Z,23.03
2022-08-19T01:50:32.643Z,23.01
2022-08-19T01:53:07.676Z,22.99
2022-08-19T01:55:40.890Z,22.96
2022-08-19T01:58:13.986Z,22.94
2022-08-19T02:00:46.189Z,22.93
2022-08-19T02:03:16.350Z,22.93
2022-08-19T02:05:46.007Z,22.91
2022-08-19T02:08:15.743Z,22.89
2022-08-19T02:10:44.814Z,22.91
2022-08-19T02:13:14.732Z,22.93
2022-08-19T02:15:43.465Z,22.88
2022-08-19T02:18:12.277Z,22.85
2022-08-19T02:20:42.914Z,22.85
2022-08-19T02:23:13.819Z,22.84
2022-08-19T02:25:46.736Z,22.78
2022-08-19T02:28:18.577Z,22.78
2022-08-19T02:30:48.654Z,22.85
2022-08-19T02:33:17.425Z,22.89
2022-08-19T02:35:47.543Z,22.94
2022-08-19T02:38:28.603Z,22.95
2022-08-19T02:40:59.213Z,22.94
2022-08-19T02:43:29.700Z,22.88
2022-08-19T02:46:03.512Z,22.82
2022-08-19T02:48:33.225Z,22.73
2022-08-19T02:51:01.866Z,22.59
2022-08-19T02:53:30.953Z,22.40
2022-08-19T02:55:59.765Z,22.29
2022-08-19T02:58:28.319Z,22.21
2022-08-19T03:00:58.235Z,22.09
2022-08-19T03:03:27.332Z,22.02
2022-08-19T03:06:13.560Z,21.99
2022-08-19T03:08:44.163Z,22.01
2022-08-19T03:11:16.543Z,22.00
2022-08-19T03:13:45.583Z,21.99
2022-08-19T03:16:14.700Z,22.00
2022-08-19T03:18:43.848Z,22.01
2022-08-19T03:21:17.358Z,22.02
2022-08-19T03:23:46.374Z,22.04
2022-08-19T03:26:16.544Z,22.06
2022-08-19T03:28:51.569Z,22.10
2022-08-19T03:31:44.156Z,22.14
2022-08-19T03:34:19.683Z,22.15
2022-08-19T03:36:49.313Z,22.17
2022-08-19T03:39:18.570Z,22.16
2022-08-19T03:41:50.434Z,22.16
2022-08-19T03:44:39.220Z,22.12
2022-08-19T03:47:08.180Z,22.07
2022-08-19T03:49:37.268Z,22.06
2022-08-19T03:52:07.810Z,22.05
2022-08-19T03:54:38.781Z,22.03
2022-08-19T03:57:08.104Z,22.00
2022-08-19T03:59:38.643Z,21.98
2022-08-19T04:02:10.285Z,21.95
2022-08-19T04:04:38.818Z,21.96
2022-08-19T04:07:07.612Z,21.89
2022-08-19T04:09:38.455Z,21.87
2022-08-19T04:12:09.150Z,21.88
2022-08-19T04:14:37.790Z,21.91
2022-08-19T04:17:06.349Z,21.93
2022-08-19T04:19:36.774Z,21.93
2022-08-19T04:22:07.137Z,22.00
2022-08-19T04:24:36.602Z,22.06
2022-08-19T04:27:06.623Z,22.11
2022-08-19T04:29:35.513Z,22.16
2022-08-19T04:32:09.397Z,22.20
2022-08-19T04:35:02.625Z,22.25
2022-08-19T04:37:35.608Z,22.29
2022-08-19T04:40:27.031Z,22.34
2022-08-19T04:42:56.832Z,22.38
2022-08-19T04:45:25.998Z,22.40
2022-08-19T04:47:58.838Z,22.43
2022-08-19T04:50:46.207Z,22.49
2022-08-19T04:53:15.815Z,22.49
2022-08-19T04:55:44.878Z,22.52
2022-08-19T04:58:13.806Z,22.57
2022-08-19T05:00:44.080Z,22.64
2022-08-19T05:03:13.664Z,22.78
2022-08-19T05:05:44.507Z,23.01
2022-08-19T05:08:18.992Z,23.28
2022-08-19T05:11:00.090Z,23.60
2022-08-19T05:13:28.856Z,23.92
2022-08-19T05:15:59.644Z,24.21
2022-08-19T05:18:47.325Z,24.50
2022-08-19T05:21:37.448Z,24.75
2022-08-19T05:24:09.280Z,24.97
2022-08-19T05:26:38.832Z,25.13
2022-08-19T05:29:09.104Z,25.27
2022-08-19T05:31:39.434Z,25.37
2022-08-19T05:34:20.106Z,25.43
2022-08-19T05:36:50.781Z,25.49
2022-08-19T05:39:21.107Z,25.50
2022-08-19T05:41:57.451Z,25.55
2022-08-19T05:44:30.914Z,25.64
2022-08-19T05:47:00.536Z,25.68
2022-08-19T05:49:31.779Z,25.77
2022-08-19T05:52:04.076Z,25.87
2022-08-19T05:54:32.920Z,25.98
2022-08-19T05:57:02.752Z,26.11
2022-08-19T05:59:31.229Z,26.28
2022-08-19T06:02:03.455Z,26.41
2022-08-19T06:04:32.104Z,26.60
2022-08-19T06:07:01.885Z,26.82
2022-08-19T06:09:43.699Z,27.04
2022-08-19T06:12:31.892Z,27.24
2022-08-19T06:15:01.954Z,27.43
2022-08-19T06:17:31.903Z,27.60
2022-08-19T06:20:00.738Z,27.80
2022-08-19T06:22:29.792Z,28.07
2022-08-19T06:24:58.534Z,28.35
2022-08-19T06:27:27.638Z,28.64
2022-08-19T06:29:56.155Z,28.91
2022-08-19T06:32:24.757Z,29.20
2022-08-19T06:34:53.539Z,29.46
2022-08-19T06:37:22.655Z,29.65
2022-08-19T06:39:52.250Z,29.88
2022-08-19T06:42:21.709Z,30.07
2022-08-19T06:44:53.233Z,30.32
2022-08-19T06:47:23.698Z,30.54
2022-08-19T06:50:01.164Z,30.85
2022-08-19T06:52:33.974Z,31.07
2022-08-19T06:55:06.354Z,31.26
2022-08-19T06:57:36.296Z,31.35
2022-08-19T07:00:12.802Z,31.57
2022-08-19T07:02:44.705Z,31.69
2022-08-19T07:05:18.141Z,31.72
2022-08-19T07:07:49.293Z,31.71
2022-08-19T07:10:20.594Z,31.77
2022-08-19T07:12:50.578Z,31.76
2022-08-19T07:15:21.650Z,31.82
2022-08-19T07:17:52.620Z,31.87
2022-08-19T07:20:21.705Z,31.88
2022-08-19T07:22:57.519Z,31.93
2022-08-19T07:25:32.514Z,32.04
2022-08-19T07:28:02.288Z,32.21
2022-08-19T07:30:31.588Z,32.44
2022-08-19T07:33:00.072Z,32.54
2022-08-19T07:35:32.844Z,32.48
2022-08-19T07:38:03.526Z,32.57
2022-08-19T07:40:32.856Z,32.62
2022-08-19T07:43:01.415Z,32.69
2022-08-19T07:45:30.818Z,32.72
2022-08-19T07:48:00.621Z,32.67
2022-08-19T07:50:29.700Z,32.76
2022-08-19T07:52:58.496Z,32.95
2022-08-19T07:55:41.106Z,33.09
2022-08-19T07:58:13.737Z,33.44
2022-08-19T08:00:42.854Z,33.62
2022-08-19T08:03:11.952Z,33.62
2022-08-19T08:05:59.438Z,33.67
2022-08-19T08:08:48.130Z,33.57
2022-08-19T08:11:20.451Z,33.34
2022-08-19T08:14:00.744Z,33.13
2022-08-19T08:16:39.789Z,32.72
2022-08-19T08:19:20.472Z,32.30
2022-08-19T08:21:56.022Z,31.96
2022-08-19T08:24:28.356Z,31.81
2022-08-19T08:27:00.836Z,31.66
2022-08-19T08:29:34.628Z,31.47
2022-08-19T08:32:14.697Z,31.27
2022-08-19T08:34:44.297Z,31.11
2022-08-19T08:37:13.151Z,31.04
2022-08-19T08:39:45.258Z,31.01
2022-08-19T08:42:21.726Z,30.98
2022-08-19T08:47:32.944Z,30.88
2022-08-19T08:50:06.288Z,30.83
2022-08-19T08:52:37.966Z,30.78
2022-08-19T08:55:12.179Z,30.97
2022-08-19T08:57:54.928Z,31.29
2022-08-19T09:00:28.214Z,31.62
2022-08-19T09:02:59.286Z,31.83
2022-08-19T09:05:42.095Z,32.09
2022-08-19T09:08:27.910Z,32.40
2022-08-19T09:10:58.111Z,32.63
2022-08-19T09:13:37.592Z,32.84
2022-08-19T09:16:09.851Z,33.02
2022-08-19T09:18:44.324Z,33.12
2022-08-19T09:21:13.539Z,33.06
2022-08-19T09:23:42.960Z,32.95
2022-08-19T09:26:16.548Z,32.95
2022-08-19T09:28:48.317Z,33.10
2022-08-19T09:31:19.320Z,33.31
2022-08-19T09:33:49.203Z,33.65
2022-08-19T09:36:31.150Z,34.00
2022-08-19T09:39:04.759Z,34.33
2022-08-19T09:41:47.675Z,34.63
2022-08-19T09:44:18.215Z,34.98
2022-08-19T09:46:47.644Z,35.36
2022-08-19T09:49:17.726Z,35.57
2022-08-19T09:51:51.283Z,35.65
2022-08-19T09:54:23.867Z,35.70
2022-08-19T09:56:55.267Z,35.80
2022-08-19T09:59:24.140Z,35.84
2022-08-19T10:01:53.047Z,35.94
2022-08-19T10:04:22.507Z,36.06
2022-08-19T10:06:57.128Z,36.30
2022-08-19T10:09:34.565Z,36.46
2022-08-19T10:12:06.575Z,36.58
2022-08-19T10:14:39.884Z,36.61
2022-08-19T10:17:17.569Z,36.81
2022-08-19T10:19:55.528Z,36.90
2022-08-19T10:22:25.723Z,36.93
2022-08-19T10:24:55.162Z,36.98
2022-08-19T10:27:24.332Z,36.98
2022-08-19T10:29:55.594Z,36.88
2022-08-19T10:32:34.223Z,36.82
2022-08-19T10:35:08.280Z,36.69
2022-08-19T10:37:37.785Z,36.66
2022-08-19T10:40:17.098Z,36.57
2022-08-19T10:42:45.654Z,36.46
2022-08-19T10:45:14.186Z,36.59
2022-08-19T10:47:42.871Z,36.71
2022-08-19T10:50:30.209Z,36.68
2022-08-19T10:53:04.258Z,36.76
2022-08-19T10:55:56.957Z,36.79
2022-08-19T10:58:26.536Z,36.76
2022-08-19T11:00:57.105Z,36.74
2022-08-19T11:03:28.135Z,36.68
2022-08-19T11:06:01.094Z,36.56
2022-08-19T11:08:31.121Z,36.41
2022-08-19T11:11:01.478Z,36.30
2022-08-19T11:13:30.009Z,36.28
2022-08-19T11:16:05.105Z,36.24
2022-08-19T11:18:37.921Z,36.24
2022-08-19T11:21:12.029Z,36.19
2022-08-19T11:23:41.636Z,36.04
2022-08-19T11:26:10.565Z,35.86
2022-08-19T11:28:39.630Z,35.68
2022-08-19T11:31:12.508Z,35.52
2022-08-19T11:33:41.796Z,35.35
2022-08-19T11:36:16.789Z,35.22
2022-08-19T11:38:48.669Z,35.13
2022-08-19T11:41:20.690Z,34.98
2022-08-19T11:43:49.258Z,34.87
2022-08-19T11:46:18.411Z,34.78
2022-08-19T11:48:48.401Z,34.73
2022-08-19T11:51:21.819Z,34.64
2022-08-19T11:53:50.664Z,34.52
2022-08-19T11:56:20.238Z,34.44
2022-08-19T11:58:49.464Z,34.39
2022-08-19T12:01:20.089Z,34.37
2022-08-19T12:03:50.827Z,34.36
2022-08-19T12:06:25.960Z,34.42
2022-08-19T12:08:55.214Z,34.48
2022-08-19T12:11:31.253Z,34.52
2022-08-19T12:14:03.590Z,34.51
2022-08-19T12:16:32.986Z,34.54
2022-08-19T12:19:04.448Z,34.57
2022-08-19T12:21:35.381Z,34.63
2022-08-19T12:24:06.428Z,34.68
2022-08-19T12:26:52.877Z,34.69
2022-08-19T12:29:29.889Z,34.67
2022-08-19T12:32:02.358Z,34.65
2022-08-19T12:34:33.387Z,34.65
2022-08-19T12:37:04.891Z,34.65
2022-08-19T12:39:38.434Z,34.69
2022-08-19T12:42:09.176Z,34.71
2022-08-19T12:44:40.651Z,34.66
2022-08-19T12:47:14.191Z,34.58
2022-08-19T12:49:54.467Z,34.51
2022-08-19T12:52:27.417Z,34.43
2022-08-19T12:54:57.552Z,34.43
2022-08-19T12:57:32.179Z,34.44
2022-08-19T13:00:06.902Z,34.49
2022-08-19T13:02:38.812Z,34.54
2022-08-19T13:05:21.202Z,34.55
2022-08-19T13:07:51.190Z,34.52
2022-08-19T13:10:21.999Z,34.44
2022-08-19T13:12:53.446Z,34.40
2022-08-19T13:15:24.379Z,34.37
2022-08-19T13:17:54.080Z,34.39
2022-08-19T13:20:23.912Z,34.42
2022-08-19T13:22:52.459Z,34.51
2022-08-19T13:25:21.882Z,34.56
2022-08-19T13:27:51.637Z,34.53
2022-08-19T13:30:39.849Z,34.47
2022-08-19T13:33:12.062Z,34.44
2022-08-19T13:35:43.014Z,34.46
2022-08-19T13:38:11.776Z,34.46
2022-08-19T13:40:41.624Z,34.31
2022-08-19T13:43:12.433Z,34.19
2022-08-19T13:45:54.102Z,34.16
2022-08-19T13:48:24.514Z,34.18
2022-08-19T13:50:54.370Z,34.24
2022-08-19T13:53:23.871Z,34.28
2022-08-19T13:55:53.906Z,34.28
2022-08-19T13:58:23.173Z,34.22
2022-08-19T14:00:52.062Z,34.18
2022-08-19T14:03:30.801Z,34.20
2022-08-19T14:06:00.317Z,34.24
2022-08-19T14:08:29.551Z,34.27
2022-08-19T14:10:58.026Z,34.27
2022-08-19T14:13:26.712Z,34.26
2022-08-19T14:15:55.169Z,34.22
2022-08-19T14:18:24.899Z,34.14
2022-08-19T14:20:57.244Z,34.07
2022-08-19T14:23:27.718Z,34.03
2022-08-19T14:26:05.421Z,33.99
2022-08-19T14:28:34.220Z,33.97
2022-08-19T14:31:02.730Z,33.92
2022-08-19T14:33:32.401Z,33.92
2022-08-19T14:36:02.031Z,33.90
2022-08-19T14:38:31.952Z,33.85
2022-08-19T14:41:16.624Z,33.80
2022-08-19T14:43:46.707Z,33.72
2022-08-19T14:46:16.999Z,33.64
2022-08-19T14:48:45.699Z,33.58
2022-08-19T14:51:14.686Z,33.58
2022-08-19T14:53:44.101Z,33.60
2022-08-19T14:56:15.097Z,33.62
2022-08-19T14:58:44.666Z,33.58
2022-08-19T15:01:13.867Z,33.52
2022-08-19T15:03:42.679Z,33.49
2022-08-19T15:06:12.702Z,33.48
2022-08-19T15:08:43.375Z,33.44
2022-08-19T15:11:14.810Z,33.37
2022-08-19T15:13:45.008Z,33.31
2022-08-19T15:16:18.108Z,33.25
2022-08-19T15:18:50.051Z,33.20
2022-08-19T15:21:27.092Z,33.13
2022-08-19T15:23:59.200Z,33.07
2022-08-19T15:26:31.810Z,33.02
2022-08-19T15:29:01.306Z,32.97
2022-08-19T15:31:34.433Z,32.92
2022-08-19T15:34:06.114Z,32.85
2022-08-19T15:36:35.475Z,32.78
2022-08-19T15:39:05.830Z,32.71
2022-08-19T15:41:34.651Z,32.65
2022-08-19T15:44:09.255Z,32.56
2022-08-19T15:46:40.612Z,32.39
2022-08-19T15:49:10.075Z,32.14
2022-08-19T15:51:40.007Z,31.21
2022-08-19T15:54:10.760Z,29.85
2022-08-19T15:57:06.265Z,28.64
2022-08-19T15:59:55.252Z,27.67
2022-08-19T16:02:46.282Z,26.91
2022-08-19T16:05:36.734Z,26.29
2022-08-19T16:08:06.004Z,25.83
2022-08-19T16:10:34.414Z,25.47
2022-08-19T16:13:03.636Z,25.22
2022-08-19T16:15:33.420Z,25.07
2022-08-19T16:18:03.747Z,24.96
2022-08-19T16:20:33.133Z,24.90
2022-08-19T16:23:04.525Z,24.83
2022-08-19T16:25:33.223Z,24.76
2022-08-19T16:28:06.346Z,24.75
2022-08-19T16:30:40.005Z,24.77
2022-08-19T16:33:09.127Z,24.77
2022-08-19T16:35:38.079Z,24.77
2022-08-19T16:38:06.642Z,24.71
2022-08-19T16:40:35.759Z,24.56
2022-08-19T16:43:04.815Z,24.49
2022-08-19T16:45:33.520Z,24.54
2022-08-19T16:48:03.260Z,24.58
2022-08-19T16:50:48.861Z,24.62
2022-08-19T16:53:21.389Z,24.67
2022-08-19T16:55:50.234Z,24.70
2022-08-19T16:58:18.852Z,24.67
2022-08-19T17:00:49.183Z,24.64
2022-08-19T17:03:35.718Z,24.62
2022-08-19T17:06:15.920Z,24.60
